Time;durP1;ratioP1;P1;durP2;ratioP2;P2;SDS_P1;SDS_P2;PMS_P1;PMS_P2;Temp;Humidity;BMP_temperature;BMP_pressure;BME280_temperature;BME280_humidity;BME280_pressure;Samples;Min_cycle;Max_cycle;Signal;HPM_P1;HPM_P2
2021/10/31 00:00:41;;;;;;;12.88;8.82;;;10.90;99.90;;;;;;4873565;29;20037;-78
2021/10/31 00:03:07;;;;;;;11.13;8.18;;;10.90;99.90;;;;;;4901382;29;20051;-78
2021/10/31 00:05:34;;;;;;;15.90;9.40;;;10.80;99.90;;;;;;4894968;29;20040;-79
2021/10/31 00:08:00;;;;;;;11.60;8.50;;;10.80;99.90;;;;;;4870556;29;20472;-78
2021/10/31 00:10:27;;;;;;;10.30;7.85;;;10.80;99.90;;;;;;4887995;29;20051;-79
2021/10/31 00:12:54;;;;;;;15.73;9.23;;;10.80;99.90;;;;;;4903743;29;20051;-79
2021/10/31 00:15:20;;;;;;;11.57;8.80;;;10.80;99.90;;;;;;4878129;29;20414;-78
2021/10/31 00:17:47;;;;;;;18.45;10.38;;;10.80;99.90;;;;;;4921141;29;20039;-79
2021/10/31 00:20:14;;;;;;;14.90;8.90;;;10.70;99.90;;;;;;4887826;29;20372;-79
2021/10/31 00:22:44;;;;;;;13.30;9.38;;;10.70;99.90;;;;;;4922985;29;20044;-79
2021/10/31 00:25:10;;;;;;;11.45;7.93;;;10.70;99.90;;;;;;4876252;29;20055;-79
2021/10/31 00:27:38;;;;;;;11.63;8.00;;;10.60;99.90;;;;;;4858240;29;20044;-79
2021/10/31 00:30:05;;;;;;;11.43;7.22;;;10.60;99.90;;;;;;4885456;29;20047;-79
2021/10/31 00:32:32;;;;;;;8.25;6.40;;;10.60;99.90;;;;;;4903939;29;20040;-81
2021/10/31 00:34:59;;;;;;;12.75;7.85;;;10.60;99.90;;;;;;4888381;29;20044;-81
2021/10/31 00:37:25;;;;;;;9.90;6.95;;;10.60;99.90;;;;;;4885261;29;20044;-81
2021/10/31 00:39:52;;;;;;;10.73;6.35;;;10.50;99.90;;;;;;4884944;29;20040;-81
2021/10/31 00:42:18;;;;;;;11.02;7.28;;;10.50;99.90;;;;;;4869799;29;20039;-81
2021/10/31 00:44:45;;;;;;;8.65;5.90;;;10.50;99.90;;;;;;4901939;29;20043;-81
2021/10/31 00:47:12;;;;;;;10.05;6.15;;;10.50;99.90;;;;;;4904662;29;20051;-81
2021/10/31 00:49:39;;;;;;;10.38;6.85;;;10.40;99.90;;;;;;4918916;29;20043;-81
2021/10/31 00:52:06;;;;;;;8.95;6.82;;;10.40;99.90;;;;;;4873403;29;20039;-81
2021/10/31 00:54:34;;;;;;;8.25;6.30;;;10.40;99.90;;;;;;4888891;29;20040;-78
2021/10/31 00:57:01;;;;;;;9.18;5.45;;;10.30;99.90;;;;;;4876802;29;20044;-78
2021/10/31 00:59:27;;;;;;;11.32;6.20;;;10.30;99.90;;;;;;4887109;29;20586;-78
2021/10/31 01:01:54;;;;;;;7.28;5.90;;;10.30;99.90;;;;;;4900489;29;20416;-79
2021/10/31 01:04:23;;;;;;;8.27;5.57;;;10.30;99.90;;;;;;4894006;29;20510;-78
2021/10/31 01:07:06;;;;;;;10.07;5.88;;;10.30;99.90;;;;;;4900945;29;20047;-79
2021/10/31 01:10:00;;;;;;;7.28;5.32;;;10.30;99.90;;;;;;4874640;29;20056;-79
2021/10/31 01:12:48;;;;;;;8.07;5.53;;;10.20;99.90;;;;;;4905852;29;20467;-79
2021/10/31 01:15:42;;;;;;;7.43;5.07;;;10.20;99.90;;;;;;4886530;29;20055;-78
2021/10/31 01:18:15;;;;;;;8.32;5.63;;;10.10;99.90;;;;;;4887932;29;20043;-79
2021/10/31 01:20:56;;;;;;;10.07;5.32;;;10.10;99.90;;;;;;4883692;29;20039;-79
2021/10/31 01:23:44;;;;;;;11.48;6.20;;;10.10;99.90;;;;;;4922273;29;20364;-78
2021/10/31 01:26:43;;;;;;;11.93;7.15;;;10.10;99.90;;;;;;4892131;29;20028;-78
2021/10/31 01:29:25;;;;;;;13.57;6.68;;;10.10;99.90;;;;;;4858424;29;20051;-79
2021/10/31 01:32:07;;;;;;;13.23;7.32;;;10.10;99.90;;;;;;4903360;29;20039;-79
2021/10/31 01:35:00;;;;;;;12.00;7.57;;;10.10;99.90;;;;;;4889015;29;20395;-79
2021/10/31 01:37:53;;;;;;;12.57;6.78;;;10.10;99.90;;;;;;4890602;29;20039;-79
2021/10/31 01:40:38;;;;;;;10.15;6.95;;;10.20;99.90;;;;;;4888013;29;20043;-79
2021/10/31 01:43:11;;;;;;;11.70;6.45;;;10.10;99.90;;;;;;4895939;29;20036;-79
2021/10/31 01:45:45;;;;;;;12.10;5.57;;;10.10;99.90;;;;;;4884545;29;20502;-79
2021/10/31 01:48:28;;;;;;;16.75;8.70;;;10.10;99.90;;;;;;4899906;29;20028;-79
2021/10/31 01:50:59;;;;;;;17.08;7.22;;;10.10;99.90;;;;;;4918521;29;20395;-79
2021/10/31 01:53:32;;;;;;;12.20;6.75;;;10.00;99.90;;;;;;4888643;29;20050;-79
2021/10/31 01:56:03;;;;;;;11.80;6.82;;;10.00;99.90;;;;;;4900209;29;20043;-79
2021/10/31 01:58:34;;;;;;;11.80;6.70;;;9.90;99.90;;;;;;4871814;29;20044;-79
2021/10/31 02:01:02;;;;;;;10.82;6.07;;;9.90;99.90;;;;;;4914956;29;20039;-79
2021/10/31 02:03:31;;;;;;;11.07;6.30;;;9.90;99.90;;;;;;4887017;29;20046;-79
2021/10/31 02:06:00;;;;;;;14.00;6.70;;;9.90;99.90;;;;;;4896354;29;20044;-79
2021/10/31 02:08:27;;;;;;;11.88;6.97;;;9.90;99.90;;;;;;4922652;29;20043;-79
2021/10/31 02:10:57;;;;;;;12.20;7.80;;;9.90;99.90;;;;;;4914276;29;20032;-79
2021/10/31 02:13:26;;;;;;;12.20;6.00;;;9.90;99.90;;;;;;4919737;29;20038;-79
2021/10/31 02:15:54;;;;;;;10.18;6.43;;;9.90;99.90;;;;;;4875838;29;20043;-78
2021/10/31 02:18:23;;;;;;;10.40;6.25;;;9.90;99.90;;;;;;4892292;29;20024;-78
2021/10/31 02:20:56;;;;;;;12.57;6.20;;;9.90;99.90;;;;;;4890669;29;20032;-79
2021/10/31 02:23:23;;;;;;;8.57;5.85;;;9.80;99.90;;;;;;4921303;29;20044;-78
2021/10/31 02:25:50;;;;;;;10.38;5.20;;;9.80;99.90;;;;;;4907060;29;20400;-81
2021/10/31 02:28:17;;;;;;;12.90;6.15;;;9.80;99.90;;;;;;4902870;29;20047;-81
2021/10/31 02:30:44;;;;;;;8.82;5.47;;;9.80;99.90;;;;;;4867804;29;20043;-81
2021/10/31 02:33:10;;;;;;;9.70;5.53;;;9.70;99.90;;;;;;4899268;29;20039;-81
2021/10/31 02:35:39;;;;;;;13.90;6.25;;;9.70;99.90;;;;;;4884054;29;20040;-82
2021/10/31 02:38:07;;;;;;;9.90;5.65;;;9.70;99.90;;;;;;4916375;29;20036;-82
2021/10/31 02:40:36;;;;;;;10.80;6.20;;;9.70;99.90;;;;;;4867680;29;20052;-81
2021/10/31 02:43:06;;;;;;;9.23;6.68;;;9.70;99.90;;;;;;4868034;29;20036;-82
2021/10/31 02:45:32;;;;;;;10.13;6.18;;;9.60;99.90;;;;;;4900041;29;20035;-82
2021/10/31 02:48:09;;;;;;;9.32;6.18;;;9.70;99.90;;;;;;4900836;29;20028;-81
2021/10/31 02:50:41;;;;;;;10.20;6.88;;;9.70;99.90;;;;;;4897129;29;20032;-81
2021/10/31 02:53:14;;;;;;;10.82;6.93;;;9.70;99.90;;;;;;4868211;29;20040;-82
2021/10/31 02:56:02;;;;;;;8.32;5.88;;;9.70;99.90;;;;;;4917305;29;20043;-82
2021/10/31 02:58:34;;;;;;;12.63;5.88;;;9.70;99.90;;;;;;4900150;29;20048;-81
2021/10/31 03:01:05;;;;;;;7.72;5.45;;;9.70;99.90;;;;;;4868861;29;20523;-81
2021/10/31 03:03:33;;;;;;;13.98;6.97;;;9.60;99.90;;;;;;4888924;29;20036;-81
2021/10/31 03:06:00;;;;;;;10.38;6.75;;;9.60;99.90;;;;;;4898952;29;20048;-82
2021/10/31 03:08:29;;;;;;;11.55;7.80;;;9.60;99.90;;;;;;4902387;29;20038;-82
2021/10/31 03:11:18;;;;;;;15.55;7.95;;;9.60;99.90;;;;;;4901139;29;20036;-78
2021/10/31 03:13:45;;;;;;;12.65;7.00;;;9.60;99.90;;;;;;4856216;29;20075;-78
2021/10/31 03:16:12;;;;;;;10.57;6.47;;;9.60;99.90;;;;;;4883774;29;20108;-81
2021/10/31 03:18:38;;;;;;;10.00;6.20;;;9.60;99.90;;;;;;4902666;29;20036;-80
2021/10/31 03:21:05;;;;;;;9.40;5.65;;;9.60;99.90;;;;;;4872240;29;20047;-81
2021/10/31 03:23:32;;;;;;;10.05;6.25;;;9.60;99.90;;;;;;4867408;29;20048;-81
2021/10/31 03:25:58;;;;;;;11.35;6.07;;;9.50;99.90;;;;;;4913100;29;20548;-80
2021/10/31 03:28:25;;;;;;;9.65;5.90;;;9.50;99.90;;;;;;4881732;29;20044;-80
2021/10/31 03:30:51;;;;;;;8.52;5.60;;;9.50;99.90;;;;;;4899216;29;20044;-80
2021/10/31 03:33:18;;;;;;;13.27;5.35;;;9.50;99.90;;;;;;4882333;29;20388;-81
2021/10/31 03:35:45;;;;;;;9.25;5.13;;;9.50;99.90;;;;;;4867478;29;20044;-81
2021/10/31 03:38:11;;;;;;;8.02;5.45;;;9.60;99.90;;;;;;4901835;29;20431;-81
2021/10/31 03:40:38;;;;;;;9.73;5.28;;;9.60;99.90;;;;;;4897826;29;20511;-81
2021/10/31 03:43:04;;;;;;;12.52;5.47;;;9.60;99.90;;;;;;4875678;29;20055;-81
2021/10/31 03:45:31;;;;;;;9.10;5.28;;;9.60;99.90;;;;;;4871583;29;20052;-81
2021/10/31 03:47:58;;;;;;;10.60;5.05;;;9.70;99.90;;;;;;4856163;29;20484;-81
2021/10/31 03:50:25;;;;;;;9.20;5.40;;;9.70;99.90;;;;;;4867613;29;20395;-81
2021/10/31 03:52:52;;;;;;;8.43;4.78;;;9.70;99.90;;;;;;4898313;29;20055;-81
2021/10/31 03:55:19;;;;;;;9.48;5.57;;;9.70;99.90;;;;;;4882911;29;20051;-81
2021/10/31 03:57:46;;;;;;;9.20;5.50;;;9.70;99.90;;;;;;4886705;29;20047;-79
2021/10/31 04:00:14;;;;;;;8.13;5.20;;;9.70;99.90;;;;;;4900137;29;20052;-80
2021/10/31 04:02:42;;;;;;;13.23;5.93;;;9.80;99.90;;;;;;4898164;29;20051;-80
2021/10/31 04:05:10;;;;;;;10.88;5.72;;;9.80;99.90;;;;;;4887139;29;20590;-80
2021/10/31 04:07:37;;;;;;;9.32;5.60;;;9.80;99.90;;;;;;4919743;29;20043;-80
2021/10/31 04:10:04;;;;;;;8.25;5.25;;;9.80;99.90;;;;;;4887648;29;20484;-80
2021/10/31 04:12:30;;;;;;;10.13;6.07;;;9.80;99.90;;;;;;4883301;29;20036;-80
2021/10/31 04:14:57;;;;;;;9.32;6.00;;;9.80;99.90;;;;;;4900220;29;20043;-80
2021/10/31 04:17:23;;;;;;;9.77;6.47;;;9.80;99.90;;;;;;4872328;29;20064;-80
2021/10/31 04:19:53;;;;;;;10.23;5.63;;;9.90;99.90;;;;;;4875193;29;20059;-80
2021/10/31 04:22:19;;;;;;;9.45;5.80;;;9.90;99.90;;;;;;4889520;29;20074;-80
2021/10/31 04:24:46;;;;;;;12.60;5.97;;;9.80;99.90;;;;;;4918538;29;20032;-80
2021/10/31 04:27:12;;;;;;;10.02;5.95;;;9.80;99.90;;;;;;4888694;29;20040;-80
2021/10/31 04:29:39;;;;;;;10.77;6.40;;;9.90;99.90;;;;;;4888455;29;20059;-80
2021/10/31 04:32:08;;;;;;;8.10;4.97;;;9.80;99.90;;;;;;4890463;29;20032;-79
2021/10/31 04:34:35;;;;;;;8.90;5.65;;;9.80;99.90;;;;;;4919003;29;20051;-79
2021/10/31 04:37:02;;;;;;;8.30;5.13;;;9.80;99.90;;;;;;4873250;29;20043;-79
2021/10/31 04:39:29;;;;;;;8.43;5.60;;;9.80;99.90;;;;;;4907737;29;20062;-79
2021/10/31 04:42:03;;;;;;;10.35;5.82;;;9.80;99.90;;;;;;4873314;29;20040;-79
2021/10/31 04:44:30;;;;;;;11.38;6.03;;;9.70;99.90;;;;;;4870674;29;20055;-80
2021/10/31 04:46:58;;;;;;;9.35;6.32;;;9.70;99.90;;;;;;4887252;29;20036;-80
2021/10/31 04:49:25;;;;;;;8.85;6.18;;;9.70;99.90;;;;;;4904549;29;20530;-80
2021/10/31 04:51:51;;;;;;;8.60;5.80;;;9.60;99.90;;;;;;4888732;29;20032;-80
2021/10/31 04:54:18;;;;;;;8.93;5.80;;;9.60;99.90;;;;;;4873632;29;20043;-80
2021/10/31 04:56:44;;;;;;;10.93;5.43;;;9.60;99.90;;;;;;4888974;29;20047;-80
2021/10/31 04:59:10;;;;;;;9.70;5.40;;;9.50;99.90;;;;;;4890630;29;20044;-80
2021/10/31 05:01:37;;;;;;;6.78;5.00;;;9.50;99.90;;;;;;4900381;29;20479;-80
2021/10/31 05:04:03;;;;;;;8.55;5.63;;;9.40;99.90;;;;;;4900432;29;20036;-80
2021/10/31 05:06:30;;;;;;;9.98;6.03;;;9.40;99.90;;;;;;4884786;29;20048;-80
2021/10/31 05:08:57;;;;;;;12.10;6.05;;;9.40;99.90;;;;;;4917313;29;20384;-80
2021/10/31 05:11:24;;;;;;;9.50;5.70;;;9.30;99.90;;;;;;4870569;29;20040;-80
2021/10/31 05:13:51;;;;;;;9.32;5.60;;;9.30;99.90;;;;;;4902258;29;20047;-80
2021/10/31 05:16:18;;;;;;;8.88;5.72;;;9.30;99.90;;;;;;4884882;29;20051;-80
2021/10/31 05:18:44;;;;;;;9.95;6.53;;;9.30;99.90;;;;;;4884652;29;20373;-80
2021/10/31 05:21:11;;;;;;;9.10;6.28;;;9.30;99.90;;;;;;4900433;29;20048;-80
2021/10/31 05:23:37;;;;;;;10.48;6.43;;;9.20;99.90;;;;;;4900344;29;20040;-81
2021/10/31 05:26:04;;;;;;;10.23;7.22;;;9.20;99.90;;;;;;4885156;29;20376;-81
2021/10/31 05:28:31;;;;;;;14.05;8.50;;;9.20;99.90;;;;;;4870573;29;20043;-80
2021/10/31 05:30:57;;;;;;;12.95;8.10;;;9.20;99.90;;;;;;4917465;29;20044;-80
2021/10/31 05:33:25;;;;;;;14.18;8.48;;;9.20;99.90;;;;;;4899461;29;20039;-80
2021/10/31 05:35:52;;;;;;;12.88;7.47;;;9.20;99.90;;;;;;4884713;29;20048;-80
2021/10/31 05:38:20;;;;;;;15.82;9.52;;;9.20;99.90;;;;;;4899654;29;20462;-80
2021/10/31 05:40:49;;;;;;;11.25;7.35;;;9.20;99.90;;;;;;4887513;29;20357;-80
2021/10/31 05:43:15;;;;;;;11.95;8.07;;;9.20;99.90;;;;;;4871711;29;20055;-81
2021/10/31 05:45:42;;;;;;;13.07;8.18;;;9.20;99.90;;;;;;4897534;29;20051;-81
2021/10/31 05:48:11;;;;;;;15.30;9.68;;;9.20;99.90;;;;;;4869824;29;20582;-81
2021/10/31 05:50:37;;;;;;;13.93;8.45;;;9.10;99.90;;;;;;4915126;29;20032;-81
2021/10/31 05:53:04;;;;;;;15.70;9.32;;;9.10;99.90;;;;;;4902959;29;20376;-82
2021/10/31 05:55:30;;;;;;;14.55;9.23;;;9.10;99.90;;;;;;4917560;29;20048;-82
2021/10/31 05:57:57;;;;;;;15.68;10.65;;;9.10;99.90;;;;;;4886376;29;20051;-81
2021/10/31 06:00:24;;;;;;;14.77;10.48;;;9.00;99.90;;;;;;4884169;29;20055;-81
2021/10/31 06:02:50;;;;;;;14.50;10.40;;;9.00;99.90;;;;;;4850032;29;20484;-81
2021/10/31 06:05:17;;;;;;;16.60;9.85;;;9.10;99.90;;;;;;4881239;29;20051;-81
2021/10/31 06:07:44;;;;;;;16.77;10.73;;;9.10;99.90;;;;;;4881162;29;20033;-81
2021/10/31 06:10:11;;;;;;;18.35;11.63;;;9.10;99.90;;;;;;4870000;29;20056;-81
2021/10/31 06:12:48;;;;;;;16.65;11.63;;;9.10;99.90;;;;;;4900511;29;20055;-82
2021/10/31 06:15:21;;;;;;;14.27;10.23;;;9.20;99.90;;;;;;4883291;29;20040;-81
2021/10/31 06:17:47;;;;;;;;;;;9.20;99.90;;;;;;4872000;29;20153;-82
2021/10/31 06:20:15;;;;;;;14.82;8.85;;;9.20;99.90;;;;;;4890550;29;19911;-82
2021/10/31 06:22:42;;;;;;;14.02;9.27;;;9.30;99.90;;;;;;4867023;29;20047;-79
2021/10/31 06:25:13;;;;;;;15.23;10.00;;;9.30;99.90;;;;;;4906194;29;20051;-80
2021/10/31 06:27:42;;;;;;;17.35;10.70;;;9.30;99.90;;;;;;4902692;29;20571;-81
2021/10/31 06:30:09;;;;;;;15.88;10.38;;;9.30;99.90;;;;;;4885175;29;20035;-79
2021/10/31 06:32:36;;;;;;;16.45;8.95;;;9.40;99.90;;;;;;4917490;29;20464;-81
2021/10/31 06:35:03;;;;;;;16.48;10.20;;;9.40;99.90;;;;;;4868189;29;20055;-81
2021/10/31 06:37:29;;;;;;;14.15;10.32;;;9.40;99.90;;;;;;4883932;29;20044;-82
2021/10/31 06:39:56;;;;;;;18.73;11.85;;;9.40;99.90;;;;;;4900124;29;20078;-81
2021/10/31 06:42:26;;;;;;;16.73;10.55;;;9.50;99.90;;;;;;4883593;29;20427;-82
2021/10/31 06:44:53;;;;;;;16.65;10.85;;;9.40;99.90;;;;;;4899270;29;20040;-81
2021/10/31 06:47:20;;;;;;;14.05;9.95;;;9.40;99.90;;;;;;4871835;29;20063;-79
2021/10/31 06:49:46;;;;;;;14.82;9.80;;;9.40;99.90;;;;;;4898254;29;20036;-83
2021/10/31 06:52:13;;;;;;;17.75;11.70;;;9.40;99.90;;;;;;4885838;29;20036;-82
2021/10/31 06:54:39;;;;;;;17.73;11.73;;;9.40;99.90;;;;;;4872291;29;20040;-80
2021/10/31 06:57:06;;;;;;;16.95;10.48;;;9.40;99.90;;;;;;4883516;29;20361;-77
2021/10/31 06:59:32;;;;;;;19.55;11.75;;;9.40;99.90;;;;;;4882724;29;20055;-80
2021/10/31 07:02:00;;;;;;;18.08;10.85;;;9.40;99.90;;;;;;4882362;29;20039;-81
2021/10/31 07:04:29;;;;;;;16.05;11.27;;;9.50;99.90;;;;;;4883496;29;20749;-82
2021/10/31 07:06:56;;;;;;;15.10;10.88;;;9.50;99.90;;;;;;4899457;29;20051;-81
2021/10/31 07:09:22;;;;;;;15.70;10.80;;;9.40;99.90;;;;;;4916303;29;20032;-80
2021/10/31 07:11:49;;;;;;;19.20;12.77;;;9.50;99.90;;;;;;4869254;29;20043;-82
2021/10/31 07:14:15;;;;;;;15.43;10.20;;;9.50;99.90;;;;;;4899820;29;20387;-81
2021/10/31 07:16:42;;;;;;;17.27;10.82;;;9.50;99.90;;;;;;4885602;29;20047;-82
2021/10/31 07:19:09;;;;;;;14.50;10.30;;;9.50;99.90;;;;;;4916341;29;20055;-83
2021/10/31 07:21:37;;;;;;;15.43;10.93;;;9.50;99.90;;;;;;4885050;29;20055;-79
2021/10/31 07:24:05;;;;;;;16.35;10.48;;;9.50;99.90;;;;;;4885906;29;20047;-81
2021/10/31 07:26:32;;;;;;;17.05;10.70;;;9.60;99.90;;;;;;4886881;29;20079;-82
2021/10/31 07:28:59;;;;;;;16.80;10.07;;;9.60;99.90;;;;;;4868448;29;20040;-82
2021/10/31 07:31:28;;;;;;;15.63;10.60;;;9.60;99.90;;;;;;4883905;29;20036;-81
2021/10/31 07:33:55;;;;;;;18.88;13.05;;;9.70;99.90;;;;;;4889761;29;20040;-81
2021/10/31 07:36:21;;;;;;;20.98;13.27;;;9.70;99.90;;;;;;4881822;29;20047;-83
2021/10/31 07:38:51;;;;;;;18.52;12.20;;;9.80;99.90;;;;;;4892164;29;20036;-81
2021/10/31 07:41:17;;;;;;;19.55;11.20;;;9.90;99.90;;;;;;4897214;29;20487;-81
2021/10/31 07:43:44;;;;;;;16.42;11.90;;;9.90;99.90;;;;;;4890312;29;20657;-81
2021/10/31 07:46:10;;;;;;;17.17;12.13;;;10.00;99.90;;;;;;4887579;29;20052;-80
2021/10/31 07:48:37;;;;;;;18.50;11.45;;;10.10;99.90;;;;;;4884264;29;20373;-81
2021/10/31 07:51:03;;;;;;;20.13;13.10;;;10.10;99.90;;;;;;4897877;29;20495;-81
2021/10/31 07:53:30;;;;;;;18.23;13.05;;;10.20;99.90;;;;;;4919585;29;20028;-81
2021/10/31 07:55:56;;;;;;;14.50;10.90;;;10.20;99.90;;;;;;4870923;29;20403;-81
2021/10/31 07:58:25;;;;;;;21.30;13.18;;;10.20;99.90;;;;;;4899169;29;20504;-81
2021/10/31 08:00:52;;;;;;;21.08;13.90;;;10.30;99.90;;;;;;4874784;29;20036;-81
2021/10/31 08:03:19;;;;;;;20.65;15.07;;;10.40;99.90;;;;;;4889006;29;20044;-81
2021/10/31 08:05:47;;;;;;;24.23;16.15;;;10.40;99.90;;;;;;4897874;29;20518;-81
2021/10/31 08:08:14;;;;;;;18.77;14.90;;;10.40;99.90;;;;;;4890870;29;20040;-81
2021/10/31 08:10:40;;;;;;;22.52;15.82;;;10.50;99.90;;;;;;4884825;29;20044;-82
2021/10/31 08:13:07;;;;;;;19.00;14.00;;;10.50;99.90;;;;;;4886937;29;20468;-82
2021/10/31 08:15:35;;;;;;;22.13;15.85;;;10.50;99.90;;;;;;4886863;29;20059;-82
2021/10/31 08:18:02;;;;;;;19.60;13.93;;;10.60;99.90;;;;;;4874059;29;20043;-82
2021/10/31 08:20:29;;;;;;;17.88;13.80;;;10.60;99.90;;;;;;4887020;29;20039;-82
2021/10/31 08:22:56;;;;;;;19.05;15.38;;;10.70;99.90;;;;;;4905437;29;20047;-82
2021/10/31 08:25:23;;;;;;;22.80;17.13;;;10.80;99.90;;;;;;4918606;29;20468;-82
2021/10/31 08:27:49;;;;;;;21.27;16.50;;;10.80;99.90;;;;;;4870268;29;20036;-82
2021/10/31 08:30:16;;;;;;;21.38;15.32;;;10.90;99.90;;;;;;4886432;29;20047;-82
2021/10/31 08:32:48;;;;;;;18.27;14.27;;;11.00;99.90;;;;;;4873055;29;20059;-81
2021/10/31 08:35:15;;;;;;;19.27;14.35;;;11.00;99.90;;;;;;4903720;29;20048;-82
2021/10/31 08:37:42;;;;;;;17.42;13.80;;;11.10;99.90;;;;;;4918494;29;20897;-83
2021/10/31 08:40:09;;;;;;;17.40;13.73;;;11.10;99.90;;;;;;4875814;29;20480;-82
2021/10/31 08:42:37;;;;;;;17.90;12.27;;;11.20;99.90;;;;;;4901046;29;20043;-81
2021/10/31 08:45:05;;;;;;;17.38;13.60;;;11.20;99.90;;;;;;4921825;29;20472;-82
2021/10/31 08:47:31;;;;;;;19.40;14.60;;;11.30;99.90;;;;;;4874258;29;20497;-82
2021/10/31 08:49:58;;;;;;;15.35;12.93;;;11.30;99.90;;;;;;4901548;29;20048;-82
2021/10/31 08:52:24;;;;;;;17.25;13.80;;;11.40;99.90;;;;;;4885723;29;20098;-83
2021/10/31 08:54:51;;;;;;;16.35;13.93;;;11.50;99.90;;;;;;4900628;29;20048;-82
2021/10/31 08:57:17;;;;;;;16.67;13.48;;;11.60;99.90;;;;;;4873956;29;20040;-79
2021/10/31 08:59:44;;;;;;;14.77;11.95;;;11.60;99.90;;;;;;4881364;29;20049;-80
2021/10/31 09:02:10;;;;;;;18.38;13.55;;;11.60;99.90;;;;;;4869141;29;20052;-79
2021/10/31 09:04:39;;;;;;;15.77;12.50;;;11.60;99.90;;;;;;4920323;29;20040;-83
2021/10/31 09:07:14;;;;;;;17.23;12.13;;;11.60;99.90;;;;;;4886415;29;20064;-80
2021/10/31 09:09:42;;;;;;;14.85;11.65;;;11.60;99.90;;;;;;4900648;29;20039;-83
2021/10/31 09:12:10;;;;;;;16.10;11.32;;;11.70;99.90;;;;;;4921705;29;20040;-83
2021/10/31 09:14:37;;;;;;;11.05;9.68;;;11.70;99.90;;;;;;4904992;29;20035;-76
2021/10/31 09:17:04;;;;;;;14.95;11.35;;;11.80;99.90;;;;;;4900892;29;20095;-81
2021/10/31 09:19:30;;;;;;;15.20;12.85;;;11.80;99.90;;;;;;4901480;29;20036;-82
2021/10/31 09:22:03;;;;;;;15.98;12.27;;;11.80;99.90;;;;;;4917038;29;20035;-83
2021/10/31 09:24:30;;;;;;;14.60;11.60;;;11.90;99.90;;;;;;4900937;29;20356;-83
2021/10/31 09:27:00;;;;;;;13.18;11.63;;;12.00;99.90;;;;;;4918158;29;20031;-77
2021/10/31 09:29:30;;;;;;;11.63;10.20;;;12.10;99.90;;;;;;4900601;29;20031;-83
2021/10/31 09:32:00;;;;;;;14.40;11.95;;;12.20;99.90;;;;;;4886210;29;20028;-81
2021/10/31 09:34:29;;;;;;;15.25;11.77;;;12.30;99.90;;;;;;4920427;29;20471;-77
2021/10/31 09:36:56;;;;;;;13.40;10.73;;;12.30;99.90;;;;;;4902887;29;20039;-75
2021/10/31 09:39:23;;;;;;;11.88;9.27;;;12.40;99.90;;;;;;4902228;29;20376;-77
2021/10/31 09:42:00;;;;;;;9.57;8.52;;;12.40;99.90;;;;;;4884288;29;20382;-78
2021/10/31 09:44:43;;;;;;;10.20;8.60;;;12.50;99.90;;;;;;4840428;29;20500;-77
2021/10/31 09:47:10;;;;;;;8.25;6.95;;;12.50;99.90;;;;;;4867269;29;20048;-77
2021/10/31 09:49:37;;;;;;;8.93;6.15;;;12.60;99.90;;;;;;4916869;29;20043;-78
2021/10/31 09:52:03;;;;;;;6.88;5.38;;;12.80;99.90;;;;;;4883059;29;20365;-82
2021/10/31 09:54:32;;;;;;;4.93;4.40;;;12.90;99.90;;;;;;4899608;29;20036;-79
2021/10/31 09:56:58;;;;;;;5.38;3.80;;;13.00;99.90;;;;;;4899861;29;20036;-80
2021/10/31 09:59:27;;;;;;;7.25;5.72;;;13.10;99.90;;;;;;4884911;29;20059;-75
2021/10/31 10:02:09;;;;;;;8.10;5.53;;;13.30;99.90;;;;;;4899725;29;20039;-75
2021/10/31 10:04:38;;;;;;;5.97;5.22;;;13.50;99.90;;;;;;4902835;29;20042;-74
2021/10/31 10:07:07;;;;;;;4.95;3.80;;;13.80;99.90;;;;;;4890937;29;20043;-76
2021/10/31 10:09:35;;;;;;;4.30;2.97;;;13.90;99.90;;;;;;4907914;29;20028;-76
2021/10/31 10:12:16;;;;;;;3.90;2.55;;;14.10;99.90;;;;;;4900378;29;20610;-76
2021/10/31 10:15:08;;;;;;;3.70;2.97;;;14.20;99.90;;;;;;4911210;29;20059;-80
2021/10/31 10:18:01;;;;;;;3.40;2.60;;;14.30;99.90;;;;;;4901790;29;20066;-76
2021/10/31 10:20:27;;;;;;;;;;;14.40;99.90;;;;;;4899610;29;20052;-79
2021/10/31 10:23:10;;;;;;;3.60;2.25;;;14.40;99.90;;;;;;4887693;29;19919;-76
2021/10/31 10:25:41;;;;;;;4.38;2.03;;;14.50;99.90;;;;;;4871587;29;20048;-79
2021/10/31 10:28:23;;;;;;;4.18;2.40;;;14.70;99.90;;;;;;4918971;29;20036;-76
2021/10/31 10:30:50;;;;;;;2.83;2.42;;;14.80;99.90;;;;;;4916660;29;20028;-80
2021/10/31 10:33:20;;;;;;;2.30;1.50;;;15.00;99.90;;;;;;4917533;29;20040;-76
2021/10/31 10:35:53;;;;;;;2.30;1.30;;;15.30;99.90;;;;;;4916237;29;20032;-78
2021/10/31 10:38:20;;;;;;;2.03;1.48;;;15.60;99.90;;;;;;4900099;29;20395;-79
2021/10/31 10:40:50;;;;;;;2.30;1.30;;;15.70;99.90;;;;;;4916962;29;20036;-77
2021/10/31 10:43:29;;;;;;;3.55;1.30;;;15.70;99.90;;;;;;4905043;29;20040;-76
2021/10/31 10:46:10;;;;;;;3.22;2.50;;;15.90;99.90;;;;;;4905414;29;20063;-76
2021/10/31 10:48:56;;;;;;;3.80;2.47;;;15.90;99.90;;;;;;4903022;29;20372;-76
2021/10/31 10:51:23;;;;;;;4.63;2.17;;;15.80;99.90;;;;;;4902286;29;20044;-78
2021/10/31 10:54:11;;;;;;;3.85;1.50;;;15.70;99.90;;;;;;4901944;29;20072;-76
2021/10/31 10:56:58;;;;;;;2.60;1.20;;;15.70;99.90;;;;;;4876798;29;20052;-76
2021/10/31 10:59:25;;;;;;;1.98;0.75;;;15.60;99.90;;;;;;4918199;29;20059;-77
2021/10/31 11:02:06;;;;;;;3.95;0.88;;;15.40;99.90;;;;;;4922828;29;20036;-77
2021/10/31 11:04:34;;;;;;;5.15;1.40;;;15.30;99.90;;;;;;4904523;29;20036;-77
2021/10/31 11:07:01;;;;;;;3.80;1.20;;;15.30;99.90;;;;;;4921882;29;20047;-77
2021/10/31 11:09:45;;;;;;;1.42;0.80;;;15.30;99.90;;;;;;4903503;29;20043;-76
2021/10/31 11:12:33;;;;;;;4.90;0.70;;;15.30;99.90;;;;;;4902567;29;20032;-79
2021/10/31 11:15:09;;;;;;;2.05;1.00;;;15.30;99.90;;;;;;4919014;29;20065;-78
2021/10/31 11:17:37;;;;;;;4.22;1.23;;;15.20;99.90;;;;;;4903753;29;20040;-78
2021/10/31 11:20:06;;;;;;;2.53;0.80;;;15.30;99.90;;;;;;4918087;29;20036;-79
2021/10/31 11:22:32;;;;;;;2.22;0.88;;;15.30;99.90;;;;;;4911949;29;20118;-80
2021/10/31 11:25:04;;;;;;;1.90;0.70;;;15.40;99.90;;;;;;4920948;29;20031;-78
2021/10/31 11:27:31;;;;;;;5.43;0.70;;;15.50;99.90;;;;;;4890405;29;20048;-78
2021/10/31 11:29:59;;;;;;;2.20;0.60;;;15.60;99.90;;;;;;4915797;29;20472;-79
2021/10/31 11:32:28;;;;;;;1.98;0.70;;;15.60;99.90;;;;;;4897591;29;20384;-80
2021/10/31 11:34:57;;;;;;;2.00;0.70;;;15.60;99.90;;;;;;4884136;29;20045;-79
2021/10/31 11:37:27;;;;;;;12.93;9.35;;;15.40;99.90;;;;;;4890170;29;20042;-78
2021/10/31 11:39:58;;;;;;;3.78;2.63;;;15.40;99.90;;;;;;4887912;29;20036;-78
2021/10/31 11:42:27;;;;;;;4.00;2.08;;;15.30;99.90;;;;;;4903671;29;20051;-78
2021/10/31 11:45:10;;;;;;;4.35;1.60;;;15.30;99.90;;;;;;4887655;29;20059;-78
2021/10/31 11:47:41;;;;;;;1.58;0.80;;;15.40;99.90;;;;;;4887188;29;20055;-78
2021/10/31 11:50:19;;;;;;;1.85;0.80;;;15.40;99.90;;;;;;4886085;29;20048;-78
2021/10/31 11:53:03;;;;;;;2.80;0.80;;;15.40;99.90;;;;;;4867075;29;20051;-78
2021/10/31 11:55:34;;;;;;;1.77;0.60;;;15.40;99.90;;;;;;4895970;29;20037;-79
2021/10/31 11:58:30;;;;;;;1.30;0.63;;;15.30;99.90;;;;;;4915485;29;20028;-78
2021/10/31 12:01:05;;;;;;;2.03;0.60;;;15.30;99.90;;;;;;4915269;29;20050;-78
2021/10/31 12:03:44;;;;;;;2.85;0.98;;;15.20;99.90;;;;;;4916059;29;20325;-79
2021/10/31 12:06:16;;;;;;;1.85;0.60;;;15.20;99.90;;;;;;4916129;29;20040;-79
2021/10/31 12:08:53;;;;;;;2.03;0.60;;;15.20;99.90;;;;;;4900453;29;20036;-79
2021/10/31 12:11:40;;;;;;;1.38;0.63;;;15.20;99.90;;;;;;4912892;29;20491;-77
2021/10/31 12:14:36;;;;;;;1.52;0.80;;;15.20;99.90;;;;;;4880615;29;20040;-77
2021/10/31 12:17:42;;;;;;;1.70;0.60;;;15.20;99.90;;;;;;4887559;29;20059;-79
2021/10/31 12:20:34;;;;;;;1.70;0.80;;;15.20;99.90;;;;;;4877865;29;20044;-78
2021/10/31 12:23:51;;;;;;;1.95;0.80;;;15.20;99.90;;;;;;4872265;29;20036;-79
2021/10/31 12:26:39;;;;;;;1.48;0.80;;;15.20;99.90;;;;;;4842177;29;20057;-78
2021/10/31 12:42:59;;;;;;;2.63;0.80;;;15.40;99.90;;;;;;4777786;29;20059;-78
2021/10/31 13:03:22;;;;;;;1.77;0.70;;;15.40;99.90;;;;;;4749481;30;20062;-79
2021/10/31 13:05:54;;;;;;;2.67;0.80;;;15.50;99.90;;;;;;4724962;30;20064;-79
2021/10/31 13:08:21;;;;;;;0.95;0.52;;;15.60;99.90;;;;;;4782837;29;20041;-80
2021/10/31 13:10:52;;;;;;;2.15;0.90;;;15.60;99.90;;;;;;4825144;29;20053;-77
2021/10/31 13:13:24;;;;;;;2.30;0.90;;;15.60;99.90;;;;;;4822808;29;20461;-77
2021/10/31 13:16:03;;;;;;;3.60;1.23;;;15.70;99.90;;;;;;4837810;29;20042;-78
2021/10/31 13:18:33;;;;;;;1.50;0.60;;;15.60;99.90;;;;;;4839457;29;20500;-77
2021/10/31 13:21:09;;;;;;;3.83;0.70;;;15.60;99.90;;;;;;4837597;29;20072;-78
2021/10/31 13:23:45;;;;;;;2.90;0.90;;;15.70;99.90;;;;;;4814803;29;20049;-77
2021/10/31 13:26:13;;;;;;;3.30;1.38;;;15.70;99.90;;;;;;4809651;29;20853;-77
2021/10/31 13:28:43;;;;;;;2.17;0.90;;;15.70;99.90;;;;;;4808846;29;20054;-78
2021/10/31 13:31:20;;;;;;;2.45;0.75;;;15.80;99.90;;;;;;4814089;29;21206;-77